createdAt,value
2023-01-12T00:01:37.929Z,100734.38
2023-01-12T00:04:42.859Z,100738.81
2023-01-12T00:07:45.388Z,100733.47
2023-01-12T00:10:48.254Z,100733.50
2023-01-12T00:13:51.074Z,100731.63
2023-01-12T00:16:53.959Z,100727.28
2023-01-12T00:19:56.490Z,100726.41
2023-01-12T00:22:59.335Z,100722.88
2023-01-12T00:26:01.959Z,100715.78
2023-01-12T00:29:04.755Z,100721.09
2023-01-12T00:32:08.129Z,100714.87
2023-01-12T00:35:11.046Z,100721.03
2023-01-12T00:38:13.636Z,100725.50
2023-01-12T00:41:35.079Z,100724.69
2023-01-12T00:44:56.614Z,100727.31
2023-01-12T00:47:59.551Z,100723.72
2023-01-12T00:51:05.267Z,100726.41
2023-01-12T00:54:08.497Z,100721.00
2023-01-12T00:57:13.667Z,100724.47
2023-01-12T01:00:17.385Z,100721.72
2023-01-12T01:03:20.111Z,100724.34
2023-01-12T01:06:23.250Z,100734.00
2023-01-12T01:09:25.796Z,100742.88
2023-01-12T01:12:28.728Z,100731.31
2023-01-12T01:15:31.365Z,100740.12
2023-01-12T01:18:35.496Z,100739.31
2023-01-12T01:21:38.151Z,100735.78
2023-01-12T01:24:41.836Z,100730.47
2023-01-12T01:27:44.411Z,100726.09
2023-01-12T01:30:47.904Z,100729.66
2023-01-12T01:33:51.457Z,100725.28
2023-01-12T01:36:54.350Z,100725.41
2023-01-12T01:39:56.854Z,100726.22
2023-01-12T01:42:59.935Z,100728.06
2023-01-12T01:46:07.796Z,100731.59
2023-01-12T01:49:22.802Z,100741.47
2023-01-12T01:52:35.224Z,100738.84
2023-01-12T01:55:43.001Z,100732.66
2023-01-12T01:58:50.955Z,100738.84
2023-01-12T02:01:55.354Z,100743.31
2023-01-12T02:04:58.272Z,100742.41
2023-01-12T02:08:39.945Z,100745.03
2023-01-12T02:12:02.053Z,100755.69
2023-01-12T02:15:24.212Z,100751.22
2023-01-12T02:18:36.071Z,100751.22
2023-01-12T02:22:34.344Z,100754.75
2023-01-12T02:25:58.469Z,100755.66
2023-01-12T02:29:48.983Z,100762.66
2023-01-12T02:32:58.028Z,100768.91
2023-01-12T02:36:09.126Z,100762.66
2023-01-12T02:39:21.635Z,100767.97
2023-01-12T02:42:43.085Z,100767.03
2023-01-12T02:45:54.608Z,100766.19
2023-01-12T02:49:19.065Z,100767.00
2023-01-12T02:52:25.203Z,100767.84
2023-01-12T02:55:29.324Z,100785.59
2023-01-12T02:58:35.821Z,100775.78
2023-01-12T03:01:39.969Z,100776.63
2023-01-12T03:04:42.739Z,100773.03
2023-01-12T03:08:03.835Z,100774.75
2023-01-12T03:11:20.811Z,100772.94
2023-01-12T03:14:23.888Z,100779.97
2023-01-12T03:17:32.095Z,100778.12
2023-01-12T03:20:39.631Z,100775.44
2023-01-12T03:23:46.545Z,100775.38
2023-01-12T03:26:51.897Z,100773.50
2023-01-12T03:30:00.714Z,100773.41
2023-01-12T03:33:04.943Z,100779.59
2023-01-12T03:36:24.152Z,100777.78
2023-01-12T03:39:32.953Z,100769.81
2023-01-12T03:42:41.678Z,100776.00
2023-01-12T03:45:57.160Z,100774.16
2023-01-12T03:49:12.041Z,100776.84
2023-01-12T03:52:16.019Z,100767.06
2023-01-12T03:55:23.310Z,100769.88
2023-01-12T03:58:26.496Z,100769.81
2023-01-12T04:01:29.354Z,100772.56
2023-01-12T04:04:32.444Z,100779.56
2023-01-12T04:07:35.054Z,100779.50
2023-01-12T04:10:39.527Z,100777.75
2023-01-12T04:13:42.046Z,100780.34
2023-01-12T04:16:46.935Z,100790.94
2023-01-12T04:19:49.828Z,100799.00
2023-01-12T04:22:52.766Z,100800.72
2023-01-12T04:25:55.383Z,100798.94
2023-01-12T04:28:58.188Z,100795.38
2023-01-12T04:32:00.983Z,100799.72
2023-01-12T04:35:05.256Z,100804.16
2023-01-12T04:38:08.625Z,100801.44
2023-01-12T04:41:11.426Z,100803.19
2023-01-12T04:44:14.160Z,100807.66
2023-01-12T04:47:16.937Z,100811.22
2023-01-12T04:50:19.420Z,100820.09
2023-01-12T04:53:24.613Z,100824.53
2023-01-12T04:56:27.305Z,100820.06
2023-01-12T04:59:30.363Z,100821.66
2023-01-12T05:02:32.917Z,100825.12
2023-01-12T05:05:36.273Z,100830.41
2023-01-12T05:08:57.712Z,100833.87
2023-01-12T05:12:01.476Z,100827.50
2023-01-12T05:15:04.334Z,100833.59
2023-01-12T05:18:07.209Z,100827.47
2023-01-12T05:21:09.825Z,100826.56
2023-01-12T05:24:12.783Z,100828.31
2023-01-12T05:27:15.401Z,100824.78
2023-01-12T05:30:18.402Z,100824.84
2023-01-12T05:33:21.219Z,100828.34
2023-01-12T05:36:26.440Z,100843.41
2023-01-12T05:39:29.267Z,100837.91
2023-01-12T05:42:51.372Z,100852.97
2023-01-12T05:45:54.008Z,100854.69
2023-01-12T05:48:58.289Z,100857.28
2023-01-12T05:52:01.338Z,100855.75
2023-01-12T05:55:04.904Z,100864.63
2023-01-12T05:58:07.536Z,100868.09
2023-01-12T06:01:10.825Z,100870.75
2023-01-12T06:04:13.649Z,100877.00
2023-01-12T06:07:16.770Z,100885.97
2023-01-12T06:10:19.817Z,100883.41
2023-01-12T06:13:40.875Z,100889.75
2023-01-12T06:16:44.164Z,100892.47
2023-01-12T06:19:46.682Z,100896.00
2023-01-12T06:22:49.501Z,100891.78
2023-01-12T06:25:52.145Z,100895.41
2023-01-12T06:28:55.163Z,100897.22
2023-01-12T06:31:58.262Z,100905.28
2023-01-12T06:35:07.122Z,100891.78
2023-01-12T06:38:19.036Z,100904.56
2023-01-12T06:41:41.005Z,100913.56
2023-01-12T06:44:43.804Z,100915.41
2023-01-12T06:47:47.481Z,100913.66
2023-01-12T06:50:50.183Z,100919.88
2023-01-12T06:53:54.209Z,100915.41
2023-01-12T06:56:57.075Z,100919.88
2023-01-12T07:00:00.106Z,100919.81
2023-01-12T07:03:02.659Z,100921.50
2023-01-12T07:06:05.759Z,100922.34
2023-01-12T07:09:08.453Z,100919.59
2023-01-12T07:12:11.632Z,100923.12
2023-01-12T07:15:15.639Z,100903.25
2023-01-12T07:18:18.643Z,100919.75
2023-01-12T07:21:22.217Z,100908.41
2023-01-12T07:24:25.225Z,100912.09
2023-01-12T07:27:27.919Z,100918.34
2023-01-12T07:30:30.941Z,100921.97
2023-01-12T07:33:34.574Z,100910.50
2023-01-12T07:36:37.408Z,100923.88
2023-01-12T07:39:40.120Z,100919.53
2023-01-12T07:42:43.187Z,100933.09
2023-01-12T07:45:46.483Z,100926.22
2023-01-12T07:48:49.437Z,100924.66
2023-01-12T07:51:56.264Z,100925.66
2023-01-12T07:54:59.519Z,100926.69
2023-01-12T07:58:05.264Z,100933.91
2023-01-12T08:01:10.386Z,100940.16
2023-01-12T08:04:13.710Z,100938.41
2023-01-12T08:07:17.948Z,100936.53
2023-01-12T08:10:22.785Z,100939.22
2023-01-12T08:13:25.766Z,100942.66
2023-01-12T08:16:35.746Z,100935.41
2023-01-12T08:19:43.885Z,100947.62
2023-01-12T08:22:51.728Z,100945.59
2023-01-12T08:25:59.502Z,100950.66
2023-01-12T08:29:13.073Z,100943.28
2023-01-12T08:32:18.459Z,100944.91
2023-01-12T08:35:22.645Z,100945.69
2023-01-12T08:38:25.364Z,100943.28
2023-01-12T08:41:34.242Z,100947.75
2023-01-12T08:44:37.033Z,100936.66
2023-01-12T08:47:44.363Z,100942.03
2023-01-12T08:50:46.892Z,100937.75
2023-01-12T08:53:49.924Z,100934.56
2023-01-12T08:56:54.835Z,100935.44
2023-01-12T09:00:00.151Z,100942.91
2023-01-12T09:03:04.805Z,100940.50
2023-01-12T09:06:19.933Z,100937.41
2023-01-12T09:09:22.963Z,100933.28
2023-01-12T09:12:27.143Z,100938.91
2023-01-12T09:15:30.229Z,100936.47
2023-01-12T09:18:33.357Z,100925.13
2023-01-12T09:21:39.258Z,100928.66
2023-01-12T09:24:42.282Z,100936.09
2023-01-12T09:27:45.279Z,100934.41
2023-01-12T09:30:48.328Z,100929.44
2023-01-12T09:33:51.186Z,100926.59
2023-01-12T09:36:56.247Z,100933.06
2023-01-12T09:39:59.894Z,100924.59
2023-01-12T09:43:21.636Z,100919.38
2023-01-12T09:46:57.216Z,100913.19
2023-01-12T09:50:11.334Z,100906.91
2023-01-12T09:53:20.803Z,100897.66
2023-01-12T09:56:32.239Z,100898.56
2023-01-12T09:59:44.112Z,100895.81
2023-01-12T10:02:51.851Z,100899.53
2023-01-12T10:06:03.186Z,100903.25
2023-01-12T10:09:07.891Z,100873.56
2023-01-12T10:12:43.555Z,100905.91
2023-01-12T10:15:49.573Z,100900.69
2023-01-12T10:18:54.678Z,100892.84
2023-01-12T10:21:58.205Z,100885.13
2023-01-12T10:25:01.333Z,100888.81
2023-01-12T10:28:15.064Z,100891.78
2023-01-12T10:31:27.084Z,100873.34
2023-01-12T10:34:49.522Z,100862.34
2023-01-12T10:37:56.683Z,100860.03
2023-01-12T10:41:18.297Z,100847.81
2023-01-12T10:44:21.478Z,100857.66
2023-01-12T10:47:24.273Z,100853.22
2023-01-12T10:50:31.449Z,100853.19
2023-01-12T10:53:55.153Z,100863.94
2023-01-12T10:57:13.370Z,100854.13
2023-01-12T11:00:26.212Z,100854.16
2023-01-12T11:03:32.945Z,100843.47
2023-01-12T11:06:35.660Z,100832.81
2023-01-12T11:09:39.497Z,100826.53
2023-01-12T11:12:42.168Z,100807.03
2023-01-12T11:15:57.853Z,100816.00
2023-01-12T11:19:18.577Z,100806.16
2023-01-12T11:22:27.602Z,100813.34
2023-01-12T11:25:38.867Z,100811.53
2023-01-12T11:28:45.373Z,100816.00
2023-01-12T11:31:48.673Z,100817.75
2023-01-12T11:34:57.963Z,100798.06
2023-01-12T11:38:13.784Z,100785.47
2023-01-12T11:41:22.980Z,100795.28
2023-01-12T11:44:32.464Z,100793.44
2023-01-12T11:47:41.909Z,100786.28
2023-01-12T11:50:48.773Z,100788.97
2023-01-12T11:53:52.050Z,100790.78
2023-01-12T11:56:57.777Z,100776.47
2023-01-12T12:00:14.468Z,100774.59
2023-01-12T12:03:42.204Z,100779.03
2023-01-12T12:07:14.257Z,100775.44
2023-01-12T12:10:29.970Z,100774.50
2023-01-12T12:13:39.231Z,100770.13
2023-01-12T12:16:46.927Z,100766.69
2023-01-12T12:20:17.745Z,100772.78
2023-01-12T12:23:50.751Z,100762.94
2023-01-12T12:26:53.468Z,100756.56
2023-01-12T12:30:11.552Z,100762.81
2023-01-12T12:33:30.668Z,100756.47
2023-01-12T12:36:42.777Z,100751.97
2023-01-12T12:40:12.659Z,100751.97
2023-01-12T12:43:40.051Z,100742.16
2023-01-12T12:47:03.769Z,100736.78
2023-01-12T12:50:16.895Z,100735.00
2023-01-12T12:53:29.102Z,100731.47
2023-01-12T12:56:34.771Z,100722.56
2023-01-12T12:59:53.131Z,100716.41
2023-01-12T13:02:56.430Z,100727.31
2023-01-12T13:06:25.582Z,100715.63
2023-01-12T13:09:28.492Z,100723.75
2023-01-12T13:12:33.603Z,100710.31
2023-01-12T13:15:37.368Z,100719.28
2023-01-12T13:19:00.084Z,100711.19
2023-01-12T13:22:35.261Z,100691.47
2023-01-12T13:25:37.913Z,100701.37
2023-01-12T13:28:40.929Z,100696.00
2023-01-12T13:31:44.011Z,100691.50
2023-01-12T13:34:47.170Z,100693.28
2023-01-12T13:37:58.794Z,100691.53
2023-01-12T13:41:13.921Z,100694.22
2023-01-12T13:44:30.005Z,100699.59
2023-01-12T13:47:34.063Z,100692.44
2023-01-12T13:50:37.773Z,100704.94
2023-01-12T13:53:40.885Z,100695.16
2023-01-12T13:56:43.748Z,100701.41
2023-01-12T14:00:09.624Z,100698.72
2023-01-12T14:03:27.443Z,100695.13
2023-01-12T14:06:30.295Z,100702.25
2023-01-12T14:10:10.250Z,100695.06
2023-01-12T14:13:20.511Z,100695.94
2023-01-12T14:16:41.949Z,100690.53
2023-01-12T14:20:14.314Z,100684.28
2023-01-12T14:23:20.973Z,100678.88
2023-01-12T14:26:27.311Z,100680.59
2023-01-12T14:29:30.009Z,100672.53
2023-01-12T14:32:33.255Z,100675.19
2023-01-12T14:35:35.999Z,100683.19
2023-01-12T14:38:42.999Z,100672.41
2023-01-12T14:42:06.732Z,100680.28
2023-01-12T14:45:43.006Z,100680.28
2023-01-12T14:49:03.204Z,100678.41
2023-01-12T14:52:30.206Z,100667.72
2023-01-12T14:55:39.830Z,100688.06
2023-01-12T14:58:44.655Z,100689.81
2023-01-12T15:01:47.303Z,100687.19
2023-01-12T15:05:06.373Z,100681.72
2023-01-12T15:08:08.906Z,100677.19
2023-01-12T15:11:11.899Z,100684.25
2023-01-12T15:14:22.671Z,100681.37
2023-01-12T15:17:58.015Z,100686.69
2023-01-12T15:21:19.851Z,100690.06
2023-01-12T15:24:45.020Z,100689.13
2023-01-12T15:27:47.651Z,100689.94
2023-01-12T15:30:52.905Z,100691.72
2023-01-12T15:33:56.706Z,100679.22
2023-01-12T15:36:59.668Z,100693.44
2023-01-12T15:40:02.345Z,100694.03
2023-01-12T15:43:05.758Z,100694.06
2023-01-12T15:46:18.289Z,100701.97
2023-01-12T15:49:22.659Z,100701.78
2023-01-12T15:52:25.875Z,100702.63
2023-01-12T15:55:35.992Z,100702.56
2023-01-12T15:58:38.880Z,100700.56
2023-01-12T16:01:44.468Z,100709.97
2023-01-12T16:04:47.546Z,100711.50
2023-01-12T16:07:50.255Z,100719.44
2023-01-12T16:11:12.234Z,100725.78
2023-01-12T16:14:15.588Z,100716.94
2023-01-12T16:17:18.573Z,100722.28
2023-01-12T16:20:21.347Z,100728.44
2023-01-12T16:23:24.179Z,100720.38
2023-01-12T16:26:28.233Z,100713.16
2023-01-12T16:29:31.880Z,100715.81
2023-01-12T16:32:34.737Z,100724.69
2023-01-12T16:35:37.546Z,100726.41
2023-01-12T16:38:40.382Z,100723.66
2023-01-12T16:41:43.295Z,100724.47
2023-01-12T16:44:48.914Z,100714.63
2023-01-12T16:47:56.369Z,100719.03
2023-01-12T16:50:59.780Z,100721.66
2023-01-12T16:54:04.816Z,100710.91
2023-01-12T16:57:08.240Z,100706.41
2023-01-12T17:00:11.796Z,100707.50
2023-01-12T17:03:15.231Z,100702.22
2023-01-12T17:06:20.640Z,100703.91
2023-01-12T17:09:23.612Z,100707.56
2023-01-12T17:12:26.574Z,100700.19
2023-01-12T17:15:29.850Z,100697.47
2023-01-12T17:18:33.057Z,100704.34
2023-01-12T17:21:35.777Z,100683.78
2023-01-12T17:24:40.323Z,100676.69
2023-01-12T17:27:43.163Z,100663.41
2023-01-12T17:30:46.981Z,100652.16
2023-01-12T17:33:51.983Z,100645.69
2023-01-12T17:36:54.937Z,100631.84
2023-01-12T17:39:57.526Z,100627.09
2023-01-12T17:43:02.912Z,100640.50
2023-01-12T17:46:08.623Z,100640.56
2023-01-12T17:49:12.183Z,100644.16
2023-01-12T17:52:15.813Z,100642.28
2023-01-12T17:55:18.621Z,100639.72
2023-01-12T17:58:21.184Z,100638.97
2023-01-12T18:01:25.831Z,100643.41
2023-01-12T18:04:29.000Z,100647.84
2023-01-12T18:07:32.189Z,100648.62
2023-01-12T18:10:35.544Z,100643.34
2023-01-12T18:13:41.301Z,100642.44
2023-01-12T18:16:44.257Z,100641.63
2023-01-12T18:19:47.753Z,100633.53
2023-01-12T18:22:54.707Z,100630.88
2023-01-12T18:26:02.340Z,100628.25
2023-01-12T18:29:06.526Z,100610.63
2023-01-12T18:32:09.506Z,100610.63
2023-01-12T18:35:16.167Z,100615.00
2023-01-12T18:38:19.132Z,100605.28
2023-01-12T18:41:41.879Z,100607.97
2023-01-12T18:44:44.603Z,100596.41
2023-01-12T18:48:06.413Z,100604.47
2023-01-12T18:51:27.509Z,100608.00
2023-01-12T18:54:30.661Z,100609.03
2023-01-12T18:57:33.485Z,100618.81
2023-01-12T19:00:37.341Z,100624.28
2023-01-12T19:03:40.104Z,100626.78
2023-01-12T19:06:47.515Z,100618.81
2023-01-12T19:09:49.994Z,100634.00
2023-01-12T19:13:12.910Z,100633.06
2023-01-12T19:16:33.788Z,100627.66
2023-01-12T19:19:36.740Z,100620.53
2023-01-12T19:22:58.119Z,100640.13
2023-01-12T19:26:20.527Z,100652.91
2023-01-12T19:29:23.125Z,100646.38
2023-01-12T19:32:26.108Z,100653.50
2023-01-12T19:35:28.796Z,100648.91
2023-01-12T19:38:31.814Z,100640.81
2023-01-12T19:41:53.346Z,100625.75
2023-01-12T19:44:56.303Z,100634.63
2023-01-12T19:47:59.044Z,100628.25
2023-01-12T19:51:10.185Z,100634.38
2023-01-12T19:54:13.276Z,100634.25
2023-01-12T19:57:16.389Z,100635.75
2023-01-12T20:00:20.286Z,100633.87
2023-01-12T20:03:24.128Z,100632.97
2023-01-12T20:06:26.884Z,100627.37
2023-01-12T20:09:30.288Z,100633.44
2023-01-12T20:12:32.833Z,100633.22
2023-01-12T20:15:38.008Z,100635.72
2023-01-12T20:18:43.442Z,100628.44
2023-01-12T20:21:47.359Z,100627.31
2023-01-12T20:24:49.928Z,100621.62
2023-01-12T20:27:53.828Z,100616.00
2023-01-12T20:31:00.964Z,100621.00
2023-01-12T20:34:04.271Z,100623.34
2023-01-12T20:37:07.121Z,100613.31
2023-01-12T20:40:11.960Z,100622.03
2023-01-12T20:43:14.542Z,100622.03
2023-01-12T20:46:17.583Z,100609.44
2023-01-12T20:49:20.479Z,100618.41
2023-01-12T20:52:24.686Z,100616.81
2023-01-12T20:55:27.156Z,100613.41
2023-01-12T20:58:30.377Z,100623.25
2023-01-12T21:01:33.427Z,100620.84
2023-01-12T21:04:36.435Z,100617.25
2023-01-12T21:07:39.012Z,100616.34
2023-01-12T21:10:51.520Z,100616.28
2023-01-12T21:13:54.017Z,100604.69
2023-01-12T21:16:56.885Z,100605.59
2023-01-12T21:19:59.474Z,100603.22
2023-01-12T21:23:02.366Z,100601.72
2023-01-12T21:26:08.049Z,100608.09
2023-01-12T21:29:10.961Z,100610.06
2023-01-12T21:32:14.015Z,100605.59
2023-01-12T21:35:16.947Z,100613.66
2023-01-12T21:38:19.650Z,100603.03
2023-01-12T21:41:22.664Z,100606.66
2023-01-12T21:44:25.142Z,100601.34
2023-01-12T21:47:28.189Z,100602.22
2023-01-12T21:50:34.668Z,100607.53
2023-01-12T21:53:37.550Z,100600.41
2023-01-12T21:56:40.103Z,100607.59
2023-01-12T21:59:43.153Z,100605.69
2023-01-12T22:02:45.746Z,100600.31
2023-01-12T22:05:49.644Z,100598.47
2023-01-12T22:08:52.370Z,100600.38
2023-01-12T22:11:55.236Z,100597.78
2023-01-12T22:14:57.764Z,100592.53
2023-01-12T22:18:00.767Z,100597.84
2023-01-12T22:21:05.563Z,100597.81
2023-01-12T22:24:08.482Z,100593.34
2023-01-12T22:27:10.961Z,100595.12
2023-01-12T22:30:18.362Z,100600.41
2023-01-12T22:33:21.025Z,100591.38
2023-01-12T22:36:23.940Z,100586.81
2023-01-12T22:39:26.760Z,100599.09
2023-01-12T22:42:48.406Z,100596.22
2023-01-12T22:45:53.113Z,100594.28
2023-01-12T22:48:57.564Z,100604.66
2023-01-12T22:52:00.270Z,100606.13
2023-01-12T22:55:03.109Z,100608.69
2023-01-12T22:58:06.501Z,100612.84
2023-01-12T23:01:09.925Z,100599.34
2023-01-12T23:04:13.491Z,100617.81
2023-01-12T23:07:19.444Z,100612.28
2023-01-12T23:10:25.039Z,100592.69
2023-01-12T23:13:28.048Z,100602.50
2023-01-12T23:16:30.568Z,100595.22
2023-01-12T23:19:34.193Z,100588.16
2023-01-12T23:22:36.776Z,100587.16
2023-01-12T23:25:39.793Z,100583.41
2023-01-12T23:28:47.357Z,100597.63
2023-01-12T23:31:50.251Z,100593.94
2023-01-12T23:34:52.863Z,100607.19
2023-01-12T23:37:55.748Z,100604.69
2023-01-12T23:40:59.000Z,100595.59
2023-01-12T23:44:03.707Z,100599.06
2023-01-12T23:47:06.511Z,100581.31
2023-01-12T23:50:11.202Z,100589.44
2023-01-12T23:53:14.832Z,100584.19
2023-01-12T23:56:17.677Z,100586.84
2023-01-12T23:59:20.235Z,100584.03
